createdAt,value
2019-05-13T00:00:31.251Z,100285.30
2019-05-13T00:02:43.915Z,100281.85
2019-05-13T00:05:03.775Z,100283.63
2019-05-13T00:07:18.798Z,100277.67
2019-05-13T00:09:34.020Z,100276.94
2019-05-13T00:11:57.781Z,100278.91
2019-05-13T00:14:07.591Z,100280.61
2019-05-13T00:16:13.932Z,100277.13
2019-05-13T00:18:23.328Z,100275.55
2019-05-13T00:20:33.843Z,100270.33
2019-05-13T00:22:38.167Z,100274.91
2019-05-13T00:24:44.268Z,100276.79
2019-05-13T00:26:48.597Z,100269.98
2019-05-13T00:28:53.525Z,100272.67
2019-05-13T00:30:57.935Z,100275.69
2019-05-13T00:33:03.750Z,100279.74
2019-05-13T00:35:10.469Z,100281.73
2019-05-13T00:37:14.915Z,100279.30
2019-05-13T00:39:27.127Z,100273.63
2019-05-13T00:41:33.661Z,100285.14
2019-05-13T00:43:40.132Z,100279.58
2019-05-13T00:46:16.257Z,100279.13
2019-05-13T00:48:23.309Z,100279.98
2019-05-13T00:50:26.803Z,100279.86
2019-05-13T00:53:04.412Z,100279.23
2019-05-13T00:55:17.979Z,100284.57
2019-05-13T00:57:25.938Z,100289.27
2019-05-13T00:59:40.023Z,100293.23
2019-05-13T01:01:50.489Z,100297.39
2019-05-13T01:04:03.979Z,100292.34
2019-05-13T01:06:17.703Z,100295.80
2019-05-13T01:08:23.675Z,100289.09
2019-05-13T01:10:27.981Z,100289.37
2019-05-13T01:12:34.503Z,100285.56
2019-05-13T01:14:39.682Z,100287.98
2019-05-13T01:16:45.055Z,100283.67
2019-05-13T01:18:49.321Z,100290.53
2019-05-13T01:20:53.973Z,100284.58
2019-05-13T01:22:58.769Z,100279.34
2019-05-13T01:25:04.059Z,100288.20
2019-05-13T01:27:10.033Z,100282.46
2019-05-13T01:29:14.100Z,100286.21
2019-05-13T01:31:18.218Z,100279.73
2019-05-13T01:33:23.514Z,100282.64
2019-05-13T01:35:34.356Z,100286.61
2019-05-13T01:37:43.393Z,100281.16
2019-05-13T01:39:46.697Z,100285.79
2019-05-13T01:41:54.002Z,100283.47
2019-05-13T01:43:56.850Z,100288.06
2019-05-13T01:46:01.038Z,100294.34
2019-05-13T01:48:07.728Z,100290.33
2019-05-13T01:50:14.333Z,100297.73
2019-05-13T01:52:18.933Z,100298.00
2019-05-13T01:54:34.057Z,100298.30
2019-05-13T01:56:39.881Z,100296.36
2019-05-13T01:58:54.143Z,100300.83
2019-05-13T02:00:58.221Z,100299.73
2019-05-13T02:03:04.171Z,100303.56
2019-05-13T02:05:10.077Z,100301.78
2019-05-13T02:07:17.517Z,100306.13
2019-05-13T02:09:28.697Z,100302.64
2019-05-13T02:11:37.510Z,100304.77
2019-05-13T02:13:45.527Z,100306.84
2019-05-13T02:15:59.959Z,100302.82
2019-05-13T02:18:10.456Z,100308.84
2019-05-13T02:20:19.855Z,100309.05
2019-05-13T02:22:33.581Z,100306.34
2019-05-13T02:24:39.486Z,100310.41
2019-05-13T02:26:43.921Z,100310.72
2019-05-13T02:28:48.534Z,100306.84
2019-05-13T02:30:56.062Z,100311.00
2019-05-13T02:33:02.747Z,100308.80
2019-05-13T02:35:13.494Z,100310.16
2019-05-13T02:37:22.886Z,100312.53
2019-05-13T02:39:32.226Z,100311.39
2019-05-13T02:41:38.398Z,100314.69
2019-05-13T02:43:45.242Z,100315.37
2019-05-13T02:45:53.148Z,100321.87
2019-05-13T02:48:03.361Z,100315.58
2019-05-13T02:50:13.413Z,100318.17
2019-05-13T02:52:22.263Z,100320.11
2019-05-13T02:54:27.650Z,100321.82
2019-05-13T02:56:32.997Z,100322.92
2019-05-13T02:58:38.062Z,100322.27
2019-05-13T03:00:44.087Z,100322.98
2019-05-13T03:02:52.438Z,100323.30
2019-05-13T03:04:55.723Z,100324.14
2019-05-13T03:07:02.944Z,100320.45
2019-05-13T03:09:14.549Z,100327.17
2019-05-13T03:11:19.022Z,100326.53
2019-05-13T03:13:24.232Z,100332.34
2019-05-13T03:15:42.667Z,100330.34
2019-05-13T03:18:13.913Z,100329.66
2019-05-13T03:20:17.978Z,100329.36
2019-05-13T03:22:28.129Z,100339.10
2019-05-13T03:24:52.213Z,100341.92
2019-05-13T03:26:44.048Z,100342.49
2019-05-13T03:28:48.450Z,100342.36
2019-05-13T03:30:56.975Z,100345.27
2019-05-13T03:33:09.694Z,100342.70
2019-05-13T03:35:08.795Z,100343.20
2019-05-13T03:37:15.872Z,100348.02
2019-05-13T03:39:22.391Z,100345.54
2019-05-13T03:41:33.751Z,100346.63
2019-05-13T03:43:42.959Z,100350.25
2019-05-13T03:45:55.126Z,100358.24
2019-05-13T03:48:05.776Z,100360.28
2019-05-13T03:50:18.301Z,100370.31
2019-05-13T03:52:22.865Z,100370.45
2019-05-13T03:54:27.486Z,100376.91
2019-05-13T03:56:32.805Z,100375.74
2019-05-13T03:58:37.092Z,100375.27
2019-05-13T04:00:42.706Z,100380.04
2019-05-13T04:02:46.980Z,100382.78
2019-05-13T04:04:58.982Z,100378.06
2019-05-13T04:07:08.583Z,100381.62
2019-05-13T04:09:25.503Z,100391.06
2019-05-13T04:11:23.502Z,100388.69
2019-05-13T04:13:33.538Z,100390.55
2019-05-13T04:15:44.674Z,100391.40
2019-05-13T04:18:02.960Z,100389.84
2019-05-13T04:20:12.619Z,100392.56
2019-05-13T04:22:23.022Z,100394.91
2019-05-13T04:24:34.194Z,100400.67
2019-05-13T04:26:39.020Z,100408.76
2019-05-13T04:28:43.933Z,100405.34
2019-05-13T04:30:48.871Z,100405.48
2019-05-13T04:32:53.794Z,100405.76
2019-05-13T04:34:58.323Z,100408.22
2019-05-13T04:37:02.798Z,100409.00
2019-05-13T04:39:14.704Z,100408.50
2019-05-13T04:41:18.983Z,100405.92
2019-05-13T04:43:31.661Z,100404.33
2019-05-13T04:45:37.434Z,100409.33
2019-05-13T04:47:48.573Z,100417.41
2019-05-13T04:49:53.564Z,100411.75
2019-05-13T04:52:03.741Z,100411.67
2019-05-13T04:54:12.775Z,100422.00
2019-05-13T04:56:22.349Z,100417.15
2019-05-13T04:58:32.226Z,100409.13
2019-05-13T05:01:13.850Z,100412.66
2019-05-13T05:03:40.477Z,100411.78
2019-05-13T05:05:53.932Z,100410.55
2019-05-13T05:08:38.275Z,100419.48
2019-05-13T05:11:47.641Z,100414.45
2019-05-13T05:14:11.991Z,100419.44
2019-05-13T05:16:44.536Z,100422.50
2019-05-13T05:19:31.846Z,100417.77
2019-05-13T05:21:42.401Z,100421.73
2019-05-13T05:24:35.254Z,100426.53
2019-05-13T05:30:37.659Z,100431.25
2019-05-13T05:33:36.315Z,100435.84
2019-05-13T05:35:56.040Z,100435.89
2019-05-13T05:38:45.126Z,100433.67
2019-05-13T05:40:54.759Z,100434.90
2019-05-13T05:43:02.370Z,100439.98
2019-05-13T05:45:07.681Z,100439.84
2019-05-13T05:47:14.078Z,100436.86
2019-05-13T05:49:21.399Z,100435.86
2019-05-13T05:51:28.441Z,100438.95
2019-05-13T05:53:34.307Z,100433.02
2019-05-13T05:55:41.693Z,100432.23
2019-05-13T05:57:47.788Z,100433.31
2019-05-13T05:59:53.843Z,100438.27
2019-05-13T06:02:02.037Z,100430.64
2019-05-13T06:04:08.927Z,100424.61
2019-05-13T06:06:14.911Z,100431.47
2019-05-13T06:08:22.050Z,100431.19
2019-05-13T06:10:25.300Z,100427.63
2019-05-13T06:12:36.644Z,100430.52
2019-05-13T06:15:33.658Z,100433.91
2019-05-13T06:17:51.814Z,100433.30
2019-05-13T06:20:03.240Z,100430.51
2019-05-13T06:22:06.601Z,100430.52
2019-05-13T06:24:16.042Z,100434.30
2019-05-13T06:26:27.436Z,100441.68
2019-05-13T06:28:37.071Z,100439.28
2019-05-13T06:30:44.355Z,100432.05
2019-05-13T06:32:54.590Z,100441.59
2019-05-13T06:35:06.069Z,100439.48
2019-05-13T06:37:13.419Z,100436.79
2019-05-13T06:39:18.897Z,100436.45
2019-05-13T06:41:23.353Z,100441.94
2019-05-13T06:43:31.495Z,100437.64
2019-05-13T06:45:37.072Z,100437.41
2019-05-13T06:50:47.226Z,100437.21
2019-05-13T06:52:51.564Z,100436.77
2019-05-13T06:54:57.428Z,100432.91
2019-05-13T06:57:14.935Z,100440.47
2019-05-13T06:59:22.358Z,100441.61
2019-05-13T07:01:28.657Z,100446.02
2019-05-13T07:03:36.771Z,100443.80
2019-05-13T07:05:45.285Z,100449.67
2019-05-13T07:07:51.287Z,100444.59
2019-05-13T07:09:55.907Z,100438.86
2019-05-13T07:12:03.165Z,100446.50
2019-05-13T07:14:08.577Z,100445.08
2019-05-13T07:16:14.940Z,100440.08
2019-05-13T07:18:21.743Z,100451.05
2019-05-13T07:20:25.386Z,100440.31
2019-05-13T07:22:32.787Z,100437.18
2019-05-13T07:24:37.253Z,100436.33
2019-05-13T07:26:46.221Z,100432.77
2019-05-13T07:28:52.412Z,100431.00
2019-05-13T07:31:02.151Z,100429.41
2019-05-13T07:33:06.983Z,100432.31
2019-05-13T07:35:15.013Z,100424.81
2019-05-13T07:37:21.915Z,100431.22
2019-05-13T07:39:29.044Z,100433.91
2019-05-13T07:41:39.608Z,100429.34
2019-05-13T07:43:46.713Z,100424.85
2019-05-13T07:45:53.721Z,100426.67
2019-05-13T07:48:19.636Z,100426.70
2019-05-13T07:50:21.877Z,100426.08
2019-05-13T07:52:36.303Z,100427.66
2019-05-13T07:54:42.302Z,100422.28
2019-05-13T07:56:52.345Z,100423.80
2019-05-13T07:59:03.475Z,100417.38
2019-05-13T08:01:32.617Z,100417.94
2019-05-13T08:03:34.455Z,100412.30
2019-05-13T08:05:46.334Z,100419.30
2019-05-13T08:07:53.102Z,100417.39
2019-05-13T08:10:15.088Z,100421.33
2019-05-13T08:12:32.052Z,100423.41
2019-05-13T08:14:43.607Z,100421.61
2019-05-13T08:16:52.490Z,100409.09
2019-05-13T08:19:46.466Z,100415.30
2019-05-13T08:22:32.573Z,100417.39
2019-05-13T08:25:31.591Z,100404.71
2019-05-13T08:27:42.081Z,100404.18
2019-05-13T08:29:52.296Z,100405.86
2019-05-13T08:32:03.795Z,100410.16
2019-05-13T08:34:17.755Z,100401.66
2019-05-13T08:36:29.602Z,100406.63
2019-05-13T08:38:43.060Z,100398.12
2019-05-13T08:40:51.156Z,100387.20
2019-05-13T08:42:57.948Z,100390.20
2019-05-13T08:45:11.851Z,100391.11
2019-05-13T08:47:22.374Z,100391.55
2019-05-13T08:49:32.893Z,100390.05
2019-05-13T08:51:35.688Z,100398.11
2019-05-13T08:53:42.494Z,100402.87
2019-05-13T08:55:51.564Z,100400.16
2019-05-13T08:57:55.388Z,100399.70
2019-05-13T09:00:04.807Z,100395.66
2019-05-13T09:02:11.384Z,100391.28
2019-05-13T09:04:18.025Z,100391.56
2019-05-13T09:06:22.339Z,100391.34
2019-05-13T09:08:28.191Z,100388.05
2019-05-13T09:10:41.422Z,100382.14
2019-05-13T09:12:53.318Z,100378.45
2019-05-13T09:14:57.989Z,100381.34
2019-05-13T09:17:02.454Z,100377.20
2019-05-13T09:19:07.090Z,100383.03
2019-05-13T09:21:13.327Z,100377.95
2019-05-13T09:23:18.132Z,100374.55
2019-05-13T09:25:23.705Z,100378.41
2019-05-13T09:27:33.383Z,100386.08
2019-05-13T09:29:42.963Z,100386.62
2019-05-13T09:31:48.103Z,100382.67
2019-05-13T09:34:12.129Z,100380.22
2019-05-13T09:37:17.232Z,100378.41
2019-05-13T09:40:23.888Z,100375.78
2019-05-13T09:45:33.589Z,100363.57
2019-05-13T09:47:42.166Z,100374.22
2019-05-13T09:49:57.422Z,100382.19
2019-05-13T09:52:15.193Z,100375.80
2019-05-13T09:54:27.170Z,100375.14
2019-05-13T09:56:33.031Z,100374.56
2019-05-13T09:59:02.040Z,100378.73
2019-05-13T10:01:22.845Z,100374.60
2019-05-13T10:03:32.897Z,100365.11
2019-05-13T10:05:44.843Z,100359.47
2019-05-13T10:07:49.213Z,100359.68
2019-05-13T10:10:27.365Z,100365.57
2019-05-13T10:12:34.995Z,100357.59
2019-05-13T10:15:03.151Z,100364.36
2019-05-13T10:17:22.085Z,100365.84
2019-05-13T10:19:42.917Z,100357.52
2019-05-13T10:21:47.697Z,100348.23
2019-05-13T10:23:58.641Z,100344.52
2019-05-13T10:26:16.952Z,100344.03
2019-05-13T10:29:11.900Z,100339.05
2019-05-13T10:31:22.010Z,100351.58
2019-05-13T10:33:51.389Z,100350.86
2019-05-13T10:36:07.971Z,100342.87
2019-05-13T10:38:22.287Z,100349.27
2019-05-13T10:40:32.708Z,100345.47
2019-05-13T10:42:43.306Z,100345.00
2019-05-13T10:44:52.793Z,100341.02
2019-05-13T10:47:02.124Z,100344.54
2019-05-13T10:49:06.268Z,100346.29
2019-05-13T10:51:16.742Z,100335.34
2019-05-13T10:53:25.362Z,100332.59
2019-05-13T10:55:33.751Z,100331.54
2019-05-13T10:57:37.789Z,100330.72
2019-05-13T10:59:44.923Z,100327.69
2019-05-13T11:01:49.306Z,100324.06
2019-05-13T11:03:53.858Z,100325.73
2019-05-13T11:06:02.310Z,100322.72
2019-05-13T11:08:12.888Z,100330.75
2019-05-13T11:10:22.395Z,100318.87
2019-05-13T11:12:28.732Z,100321.38
2019-05-13T11:14:33.072Z,100328.25
2019-05-13T11:16:42.445Z,100319.41
2019-05-13T11:18:45.777Z,100317.81
2019-05-13T11:20:51.420Z,100306.38
2019-05-13T11:23:11.916Z,100299.02
2019-05-13T11:25:22.252Z,100305.69
2019-05-13T11:28:07.155Z,100310.70
2019-05-13T11:30:17.395Z,100306.80
2019-05-13T11:32:22.463Z,100305.70
2019-05-13T11:34:28.291Z,100291.85
2019-05-13T11:36:33.642Z,100297.69
2019-05-13T11:38:43.099Z,100297.66
2019-05-13T11:40:52.458Z,100288.39
2019-05-13T11:42:55.608Z,100287.47
2019-05-13T11:45:07.596Z,100283.01
2019-05-13T11:47:13.052Z,100282.48
2019-05-13T11:49:17.241Z,100273.11
2019-05-13T11:51:24.239Z,100286.41
2019-05-13T11:53:34.564Z,100280.63
2019-05-13T11:55:44.984Z,100280.94
2019-05-13T11:57:53.091Z,100282.03
2019-05-13T12:00:02.224Z,100282.88
2019-05-13T12:02:06.996Z,100272.70
2019-05-13T12:04:11.263Z,100274.94
2019-05-13T12:06:15.669Z,100278.87
2019-05-13T12:08:22.562Z,100263.64
2019-05-13T12:10:25.928Z,100268.64
2019-05-13T12:12:34.519Z,100276.41
2019-05-13T12:14:56.906Z,100271.13
2019-05-13T12:16:47.322Z,100270.04
2019-05-13T12:18:52.885Z,100257.02
2019-05-13T12:20:58.600Z,100262.82
2019-05-13T12:23:03.600Z,100249.53
2019-05-13T12:25:07.999Z,100253.14
2019-05-13T12:27:13.060Z,100258.42
2019-05-13T12:29:28.687Z,100249.81
2019-05-13T12:31:36.875Z,100252.05
2019-05-13T12:33:44.066Z,100247.59
2019-05-13T12:35:52.570Z,100251.48
2019-05-13T12:37:57.474Z,100246.45
2019-05-13T12:40:34.424Z,100240.86
2019-05-13T12:42:44.371Z,100246.08
2019-05-13T12:45:14.289Z,100240.50
2019-05-13T12:47:18.332Z,100240.50
2019-05-13T12:49:32.105Z,100234.66
2019-05-13T12:51:32.598Z,100238.76
2019-05-13T12:53:43.473Z,100237.20
2019-05-13T12:55:52.627Z,100228.40
2019-05-13T12:57:53.121Z,100241.11
2019-05-13T13:00:02.312Z,100234.33
2019-05-13T13:02:06.481Z,100234.53
2019-05-13T13:04:12.357Z,100229.30
2019-05-13T13:06:30.466Z,100223.34
2019-05-13T13:08:39.985Z,100220.92
2019-05-13T13:10:34.937Z,100218.59
2019-05-13T13:12:41.917Z,100212.08
2019-05-13T13:14:45.196Z,100223.59
2019-05-13T13:16:53.627Z,100224.64
2019-05-13T13:18:55.401Z,100227.86
2019-05-13T13:21:07.311Z,100231.25
2019-05-13T13:23:07.673Z,100225.16
2019-05-13T13:25:14.391Z,100220.16
2019-05-13T13:27:37.104Z,100236.98
2019-05-13T13:29:25.193Z,100230.09
2019-05-13T13:31:33.865Z,100223.64
2019-05-13T13:33:38.305Z,100223.25
2019-05-13T13:35:45.153Z,100213.28
2019-05-13T13:37:52.845Z,100226.17
2019-05-13T13:43:15.874Z,100215.82
2019-05-13T13:45:22.711Z,100222.44
2019-05-13T13:47:26.218Z,100214.48
2019-05-13T13:49:34.847Z,100208.14
2019-05-13T13:51:36.508Z,100202.94
2019-05-13T13:53:44.545Z,100215.14
2019-05-13T13:55:46.469Z,100206.28
2019-05-13T13:57:51.383Z,100204.32
2019-05-13T14:00:20.941Z,100205.14
2019-05-13T14:02:05.419Z,100207.66
2019-05-13T14:04:09.102Z,100200.99
2019-05-13T14:07:03.723Z,100198.22
2019-05-13T14:08:21.644Z,100191.58
2019-05-13T14:10:25.972Z,100191.58
2019-05-13T14:12:32.495Z,100189.36
2019-05-13T14:14:36.307Z,100181.03
2019-05-13T14:16:46.866Z,100181.03
2019-05-13T14:18:52.304Z,100173.00
2019-05-13T14:20:58.542Z,100183.75
2019-05-13T14:23:03.094Z,100187.88
2019-05-13T14:25:11.366Z,100190.91
2019-05-13T14:27:15.003Z,100177.03
2019-05-13T14:29:37.556Z,100192.48
2019-05-13T14:31:32.353Z,100178.09
2019-05-13T14:33:36.125Z,100178.40
2019-05-13T14:35:41.610Z,100177.28
2019-05-13T14:37:45.831Z,100175.63
2019-05-13T14:39:49.940Z,100175.05
2019-05-13T14:41:54.199Z,100173.67
2019-05-13T14:43:58.741Z,100170.64
2019-05-13T14:46:05.081Z,100163.69
2019-05-13T14:48:09.643Z,100163.38
2019-05-13T14:50:14.802Z,100177.21
2019-05-13T14:52:22.261Z,100176.11
2019-05-13T14:54:26.342Z,100178.00
2019-05-13T14:56:32.379Z,100173.28
2019-05-13T14:58:41.700Z,100166.90
2019-05-13T15:00:46.555Z,100171.33
2019-05-13T15:02:51.847Z,100164.96
2019-05-13T15:04:57.966Z,100162.67
2019-05-13T15:07:03.388Z,100171.19
2019-05-13T15:09:08.061Z,100172.03
2019-05-13T15:11:15.314Z,100171.78
2019-05-13T15:13:19.797Z,100174.55
2019-05-13T15:15:24.269Z,100172.02
2019-05-13T15:17:28.968Z,100174.49
2019-05-13T15:19:33.184Z,100175.00
2019-05-13T15:21:38.632Z,100173.86
2019-05-13T15:23:43.415Z,100176.33
2019-05-13T15:25:51.451Z,100179.61
2019-05-13T15:27:55.929Z,100177.11
2019-05-13T15:30:17.156Z,100177.06
2019-05-13T15:32:08.945Z,100179.53
2019-05-13T15:34:13.443Z,100182.84
2019-05-13T15:36:22.523Z,100177.83
2019-05-13T15:38:28.979Z,100172.86
2019-05-13T15:40:36.436Z,100173.34
2019-05-13T15:42:40.922Z,100169.39
2019-05-13T15:44:46.970Z,100165.73
2019-05-13T15:46:52.349Z,100175.34
2019-05-13T15:48:56.630Z,100163.95
2019-05-13T15:51:02.074Z,100168.38
2019-05-13T15:53:06.558Z,100168.65
2019-05-13T15:55:14.181Z,100171.39
2019-05-13T15:57:18.473Z,100168.59
2019-05-13T15:59:22.594Z,100162.17
2019-05-13T16:01:26.892Z,100161.59
2019-05-13T16:03:31.343Z,100157.72
2019-05-13T16:05:35.479Z,100156.34
2019-05-13T16:07:41.848Z,100160.13
2019-05-13T16:09:47.979Z,100162.84
2019-05-13T16:11:52.319Z,100154.84
2019-05-13T16:13:56.715Z,100166.05
2019-05-13T16:16:01.486Z,100170.65
2019-05-13T16:18:06.376Z,100167.78
2019-05-13T16:20:16.919Z,100159.98
2019-05-13T16:22:23.958Z,100165.77
2019-05-13T16:24:35.203Z,100170.24
2019-05-13T16:26:39.060Z,100171.59
2019-05-13T16:28:43.191Z,100176.27
2019-05-13T16:30:52.571Z,100164.16
2019-05-13T16:32:56.598Z,100171.05
2019-05-13T16:35:02.739Z,100168.84
2019-05-13T16:37:07.083Z,100172.11
2019-05-13T16:39:12.279Z,100170.64
2019-05-13T16:41:23.389Z,100168.87
2019-05-13T16:43:27.426Z,100167.97
2019-05-13T16:45:31.745Z,100168.11
2019-05-13T16:47:36.042Z,100169.78
2019-05-13T16:49:41.135Z,100170.33
2019-05-13T16:51:45.451Z,100170.56
2019-05-13T16:53:52.086Z,100176.08
2019-05-13T16:55:55.571Z,100183.48
2019-05-13T16:58:03.348Z,100175.17
2019-05-13T17:00:09.791Z,100178.77
2019-05-13T17:02:16.652Z,100177.39
2019-05-13T17:04:21.480Z,100178.73
2019-05-13T17:06:25.817Z,100183.64
2019-05-13T17:08:31.786Z,100174.77
2019-05-13T17:10:35.998Z,100178.87
2019-05-13T17:12:40.036Z,100179.70
2019-05-13T17:14:44.455Z,100182.97
2019-05-13T17:16:51.730Z,100184.34
2019-05-13T17:18:56.364Z,100191.73
2019-05-13T17:21:01.446Z,100190.02
2019-05-13T17:23:05.958Z,100184.70
2019-05-13T17:25:12.358Z,100195.16
2019-05-13T17:27:15.728Z,100190.75
2019-05-13T17:29:21.150Z,100203.34
2019-05-13T17:31:25.784Z,100193.09
2019-05-13T17:33:31.820Z,100203.23
2019-05-13T17:35:35.586Z,100202.62
2019-05-13T17:37:42.016Z,100209.97
2019-05-13T17:39:45.448Z,100211.03
2019-05-13T17:41:53.867Z,100207.31
2019-05-13T17:43:58.155Z,100211.36
2019-05-13T17:46:04.037Z,100210.97
2019-05-13T17:48:23.317Z,100209.55
2019-05-13T17:50:16.952Z,100214.66
2019-05-13T17:52:22.067Z,100214.92
2019-05-13T17:54:26.629Z,100218.52
2019-05-13T17:56:32.316Z,100218.75
2019-05-13T17:58:36.669Z,100216.48
2019-05-13T18:00:48.055Z,100220.84
2019-05-13T18:02:52.365Z,100218.84
2019-05-13T18:04:56.260Z,100214.00
2019-05-13T18:07:01.639Z,100218.09
2019-05-13T18:09:07.292Z,100216.41
2019-05-13T18:11:15.069Z,100223.77
2019-05-13T18:13:21.373Z,100225.67
2019-05-13T18:15:24.556Z,100224.78
2019-05-13T18:17:30.779Z,100224.69
2019-05-13T18:19:34.520Z,100228.94
2019-05-13T18:21:38.622Z,100224.19
2019-05-13T18:23:42.798Z,100231.27
2019-05-13T18:25:46.877Z,100223.55
2019-05-13T18:27:52.092Z,100222.12
2019-05-13T18:29:56.340Z,100226.47
2019-05-13T18:32:02.032Z,100221.62
2019-05-13T18:34:06.394Z,100225.06
2019-05-13T18:36:11.999Z,100229.39
2019-05-13T18:38:16.512Z,100220.73
2019-05-13T18:40:21.924Z,100223.09
2019-05-13T18:42:31.763Z,100228.23
2019-05-13T18:44:36.140Z,100233.20
2019-05-13T18:46:41.675Z,100226.50
2019-05-13T18:48:58.224Z,100228.38
2019-05-13T18:50:52.392Z,100229.70
2019-05-13T18:52:56.730Z,100226.59
2019-05-13T18:55:02.046Z,100228.41
2019-05-13T18:57:06.622Z,100232.16
2019-05-13T18:59:12.585Z,100234.80
2019-05-13T19:01:16.612Z,100233.87
2019-05-13T19:03:21.761Z,100236.00
2019-05-13T19:05:28.168Z,100235.72
2019-05-13T19:07:32.613Z,100240.37
2019-05-13T19:09:39.029Z,100244.13
2019-05-13T19:11:46.884Z,100239.36
2019-05-13T19:13:52.177Z,100251.39
2019-05-13T19:15:56.705Z,100247.15
2019-05-13T19:18:01.200Z,100249.78
2019-05-13T19:20:11.389Z,100251.09
2019-05-13T19:22:14.732Z,100246.59
2019-05-13T19:24:18.751Z,100247.26
2019-05-13T19:26:22.875Z,100250.94
2019-05-13T19:28:27.108Z,100251.78
2019-05-13T19:30:36.165Z,100253.96
2019-05-13T19:32:41.637Z,100251.55
2019-05-13T19:34:46.116Z,100251.89
2019-05-13T19:36:51.629Z,100255.06
2019-05-13T19:38:55.764Z,100252.05
2019-05-13T19:41:01.868Z,100257.23
2019-05-13T19:43:05.994Z,100252.59
2019-05-13T19:45:10.474Z,100255.16
2019-05-13T19:47:14.822Z,100256.52
2019-05-13T19:49:29.633Z,100259.19
2019-05-13T19:51:28.209Z,100256.23
2019-05-13T19:53:32.019Z,100250.95
2019-05-13T19:55:37.310Z,100255.86
2019-05-13T19:57:43.420Z,100245.59
2019-05-13T19:59:47.489Z,100252.62
2019-05-13T20:01:51.833Z,100247.98
2019-05-13T20:03:56.352Z,100243.66
2019-05-13T20:06:02.139Z,100241.54
2019-05-13T20:08:06.616Z,100243.00
2019-05-13T20:10:11.861Z,100242.11
2019-05-13T20:12:17.195Z,100244.14
2019-05-13T20:14:22.390Z,100239.59
2019-05-13T20:16:26.892Z,100249.02
2019-05-13T20:18:31.977Z,100238.13
2019-05-13T20:20:36.318Z,100236.69
2019-05-13T20:22:42.174Z,100238.05
2019-05-13T20:24:46.560Z,100239.97
2019-05-13T20:26:52.210Z,100237.98
2019-05-13T20:28:59.030Z,100236.46
2019-05-13T20:31:02.961Z,100240.93
2019-05-13T20:33:07.837Z,100237.51
2019-05-13T20:35:22.656Z,100243.95
2019-05-13T20:37:26.943Z,100243.58
2019-05-13T20:39:37.773Z,100234.88
2019-05-13T20:41:41.967Z,100243.69
2019-05-13T20:43:46.089Z,100238.48
2019-05-13T20:45:51.758Z,100236.25
2019-05-13T20:47:56.720Z,100240.70
2019-05-13T20:50:06.501Z,100246.33
2019-05-13T20:52:14.691Z,100238.12
2019-05-13T20:54:17.086Z,100237.54
2019-05-13T20:56:21.541Z,100234.02
2019-05-13T20:58:26.031Z,100235.20
2019-05-13T21:00:31.419Z,100235.88
2019-05-13T21:02:35.532Z,100234.09
2019-05-13T21:04:39.582Z,100235.08
2019-05-13T21:06:43.753Z,100240.00
2019-05-13T21:08:47.799Z,100232.78
2019-05-13T21:11:02.221Z,100225.97
2019-05-13T21:13:07.893Z,100222.77
2019-05-13T21:15:13.094Z,100228.66
2019-05-13T21:17:17.159Z,100228.48
2019-05-13T21:19:22.070Z,100226.61
2019-05-13T21:21:27.553Z,100226.98
2019-05-13T21:23:31.681Z,100223.70
2019-05-13T21:25:35.766Z,100226.35
2019-05-13T21:27:41.982Z,100227.34
2019-05-13T21:29:46.788Z,100226.85
2019-05-13T21:31:52.983Z,100228.02
2019-05-13T21:33:57.898Z,100223.31
2019-05-13T21:36:02.065Z,100215.16
2019-05-13T21:38:06.197Z,100228.48
2019-05-13T21:40:11.141Z,100218.08
2019-05-13T21:42:15.682Z,100219.67
2019-05-13T21:44:19.489Z,100218.21
2019-05-13T21:46:24.805Z,100219.38
2019-05-13T21:48:29.232Z,100214.25
2019-05-13T21:50:37.327Z,100216.75
2019-05-13T21:52:41.964Z,100218.44
2019-05-13T21:54:46.309Z,100213.72
2019-05-13T21:56:51.598Z,100213.75
2019-05-13T21:59:01.589Z,100215.20
2019-05-13T22:01:08.367Z,100224.06
2019-05-13T22:03:12.637Z,100216.28
2019-05-13T22:05:17.019Z,100221.13
2019-05-13T22:07:22.305Z,100217.36
2019-05-13T22:09:31.770Z,100219.77
2019-05-13T22:11:36.422Z,100218.72
2019-05-13T22:13:41.921Z,100213.16
2019-05-13T22:15:48.324Z,100213.90
2019-05-13T22:17:52.342Z,100213.69
2019-05-13T22:20:01.862Z,100210.34
2019-05-13T22:22:05.645Z,100202.66
2019-05-13T22:24:11.594Z,100206.34
2019-05-13T22:26:16.457Z,100208.22
2019-05-13T22:28:22.088Z,100203.70
2019-05-13T22:30:28.718Z,100197.92
2019-05-13T22:32:32.651Z,100207.95
2019-05-13T22:34:36.843Z,100203.64
2019-05-13T22:36:40.978Z,100201.98
2019-05-13T22:38:44.825Z,100193.89
2019-05-13T22:40:49.073Z,100194.62
2019-05-13T22:42:56.679Z,100191.17
2019-05-13T22:44:58.847Z,100191.98
2019-05-13T22:47:03.033Z,100198.45
2019-05-13T22:49:07.153Z,100188.19
2019-05-13T22:51:11.763Z,100183.99
2019-05-13T22:53:15.823Z,100180.13
2019-05-13T22:55:21.752Z,100181.78
2019-05-13T22:57:25.638Z,100175.70
2019-05-13T22:59:32.041Z,100175.27
2019-05-13T23:01:35.322Z,100177.77
2019-05-13T23:03:41.248Z,100177.31
2019-05-13T23:05:45.408Z,100171.65
2019-05-13T23:07:51.298Z,100173.23
2019-05-13T23:09:55.073Z,100174.92
2019-05-13T23:12:01.585Z,100169.98
2019-05-13T23:14:09.657Z,100167.34
2019-05-13T23:16:11.547Z,100161.16
2019-05-13T23:18:16.729Z,100160.73
2019-05-13T23:20:21.333Z,100161.66
2019-05-13T23:22:27.788Z,100165.11
2019-05-13T23:24:31.916Z,100161.64
2019-05-13T23:26:36.012Z,100162.34
2019-05-13T23:28:42.416Z,100162.77
2019-05-13T23:30:46.583Z,100163.17
2019-05-13T23:32:51.780Z,100161.75
2019-05-13T23:34:56.129Z,100156.08
2019-05-13T23:37:00.292Z,100159.86
2019-05-13T23:39:06.047Z,100164.12
2019-05-13T23:41:11.469Z,100155.43
2019-05-13T23:43:15.682Z,100147.42
2019-05-13T23:45:21.811Z,100154.50
2019-05-13T23:47:26.055Z,100152.45
2019-05-13T23:49:31.702Z,100148.47
2019-05-13T23:51:35.810Z,100147.89
2019-05-13T23:53:41.656Z,100147.34
2019-05-13T23:55:45.827Z,100143.66
2019-05-13T23:57:52.397Z,100146.65
2019-05-13T23:59:55.961Z,100142.45
